sensor_id;sensor_type;location;lat;lon;timestamp;pressure;altitude;pressure_sealevel;temperature;humidity
32237;BME280;18726;44.732;10.550;2023-04-04T00:01:35;100975.72;;;6.59;100.00
32237;BME280;18726;44.732;10.550;2023-04-04T00:04:38;100966.00;;;6.49;100.00
32237;BME280;18726;44.732;10.550;2023-04-04T00:07:44;100968.69;;;6.49;100.00
32237;BME280;18726;44.732;10.550;2023-04-04T00:10:48;100972.97;;;6.50;100.00
32237;BME280;18726;44.732;10.550;2023-04-04T00:13:52;100969.97;;;6.52;100.00
32237;BME280;18726;44.732;10.550;2023-04-04T00:16:55;100970.91;;;6.47;100.00
32237;BME280;18726;44.732;10.550;2023-04-04T00:19:58;100966.97;;;6.53;100.00
32237;BME280;18726;44.732;10.550;2023-04-04T00:23:01;100959.78;;;6.49;100.00
32237;BME280;18726;44.732;10.550;2023-04-04T00:26:05;100962.97;;;6.51;100.00
32237;BME280;18726;44.732;10.550;2023-04-04T00:29:08;100969.97;;;6.52;100.00
32237;BME280;18726;44.732;10.550;2023-04-04T00:32:12;100975.81;;;6.45;100.00
32237;BME280;18726;44.732;10.550;2023-04-04T00:35:16;100967.22;;;6.43;100.00
32237;BME280;18726;44.732;10.550;2023-04-04T00:38:19;100974.66;;;6.37;100.00
32237;BME280;18726;44.732;10.550;2023-04-04T00:41:22;100975.63;;;6.33;100.00
32237;BME280;18726;44.732;10.550;2023-04-04T00:44:25;100977.34;;;6.37;100.00
32237;BME280;18726;44.732;10.550;2023-04-04T00:47:29;100987.81;;;6.30;100.00
32237;BME280;18726;44.732;10.550;2023-04-04T00:50:33;100992.06;;;6.23;100.00
32237;BME280;18726;44.732;10.550;2023-04-04T00:53:36;100988.38;;;6.19;100.00
32237;BME280;18726;44.732;10.550;2023-04-04T00:56:40;100989.97;;;6.20;100.00
32237;BME280;18726;44.732;10.550;2023-04-04T00:59:43;100987.75;;;6.22;100.00
32237;BME280;18726;44.732;10.550;2023-04-04T01:02:47;100992.19;;;6.18;100.00
32237;BME280;18726;44.732;10.550;2023-04-04T01:05:51;100992.78;;;6.15;100.00
32237;BME280;18726;44.732;10.550;2023-04-04T01:08:54;101005.19;;;6.16;100.00
32237;BME280;18726;44.732;10.550;2023-04-04T01:11:58;100993.28;;;6.17;100.00
32237;BME280;18726;44.732;10.550;2023-04-04T01:15:04;101003.59;;;6.15;100.00
32237;BME280;18726;44.732;10.550;2023-04-04T01:18:08;101002.00;;;6.14;100.00
32237;BME280;18726;44.732;10.550;2023-04-04T01:21:13;101004.38;;;6.15;100.00
32237;BME280;18726;44.732;10.550;2023-04-04T01:24:19;101003.75;;;6.18;100.00
32237;BME280;18726;44.732;10.550;2023-04-04T01:27:30;101004.56;;;6.19;100.00
32237;BME280;18726;44.732;10.550;2023-04-04T01:30:42;101006.78;;;6.17;100.00
32237;BME280;18726;44.732;10.550;2023-04-04T01:33:53;100999.16;;;6.19;100.00
32237;BME280;18726;44.732;10.550;2023-04-04T01:36:58;100999.34;;;6.22;100.00
32237;BME280;18726;44.732;10.550;2023-04-04T01:43:12;101006.66;;;6.22;100.00
32237;BME280;18726;44.732;10.550;2023-04-04T01:46:18;101001.75;;;6.24;100.00
32237;BME280;18726;44.732;10.550;2023-04-04T01:49:23;101002.47;;;6.16;100.00
32237;BME280;18726;44.732;10.550;2023-04-04T01:52:27;101004.19;;;6.12;100.00
32237;BME280;18726;44.732;10.550;2023-04-04T01:55:31;100997.81;;;6.07;100.00
32237;BME280;18726;44.732;10.550;2023-04-04T01:58:35;100999.91;;;6.10;100.00
32237;BME280;18726;44.732;10.550;2023-04-04T02:01:39;101000.75;;;6.20;100.00
32237;BME280;18726;44.732;10.550;2023-04-04T02:04:43;101006.16;;;6.20;100.00
32237;BME280;18726;44.732;10.550;2023-04-04T02:07:46;101002.72;;;6.28;100.00
32237;BME280;18726;44.732;10.550;2023-04-04T02:10:59;101004.50;;;6.32;100.00
32237;BME280;18726;44.732;10.550;2023-04-04T02:14:04;101004.03;;;6.39;100.00
32237;BME280;18726;44.732;10.550;2023-04-04T02:17:07;100994.69;;;6.45;100.00
32237;BME280;18726;44.732;10.550;2023-04-04T02:20:10;100999.25;;;6.36;100.00
32237;BME280;18726;44.732;10.550;2023-04-04T02:23:15;100999.25;;;6.36;100.00
32237;BME280;18726;44.732;10.550;2023-04-04T02:26:18;101002.91;;;6.31;100.00
32237;BME280;18726;44.732;10.550;2023-04-04T02:29:21;100991.56;;;6.21;100.00
32237;BME280;18726;44.732;10.550;2023-04-04T02:32:25;100992.50;;;6.16;100.00
32237;BME280;18726;44.732;10.550;2023-04-04T02:35:29;100989.47;;;6.18;100.00
32237;BME280;18726;44.732;10.550;2023-04-04T02:38:32;100997.56;;;6.18;100.00
32237;BME280;18726;44.732;10.550;2023-04-04T02:41:37;100992.19;;;6.18;100.00
32237;BME280;18726;44.732;10.550;2023-04-04T02:44:40;100988.38;;;6.19;100.00
32237;BME280;18726;44.732;10.550;2023-04-04T02:47:49;100994.94;;;6.26;100.00
32237;BME280;18726;44.732;10.550;2023-04-04T02:50:54;100992.09;;;6.31;100.00
32237;BME280;18726;44.732;10.550;2023-04-04T02:53:57;100990.69;;;6.34;100.00
32237;BME280;18726;44.732;10.550;2023-04-04T02:57:06;100993.84;;;6.36;100.00
32237;BME280;18726;44.732;10.550;2023-04-04T03:00:10;100995.91;;;6.30;100.00
32237;BME280;18726;44.732;10.550;2023-04-04T03:03:13;101000.31;;;6.26;100.00
32237;BME280;18726;44.732;10.550;2023-04-04T03:06:20;101011.53;;;6.20;100.00
32237;BME280;18726;44.732;10.550;2023-04-04T03:09:26;101014.38;;;6.15;97.98
32237;BME280;18726;44.732;10.550;2023-04-04T03:12:29;101014.19;;;6.11;96.28
32237;BME280;18726;44.732;10.550;2023-04-04T03:15:33;101011.97;;;6.13;94.62
32237;BME280;18726;44.732;10.550;2023-04-04T03:18:39;101006.59;;;6.13;93.93
32237;BME280;18726;44.732;10.550;2023-04-04T03:21:42;101017.19;;;6.09;93.97
32237;BME280;18726;44.732;10.550;2023-04-04T03:24:45;101012.41;;;6.06;92.49
32237;BME280;18726;44.732;10.550;2023-04-04T03:27:50;101015.25;;;6.01;90.48
32237;BME280;18726;44.732;10.550;2023-04-04T03:31:03;101024.44;;;6.00;90.57
32237;BME280;18726;44.732;10.550;2023-04-04T03:34:07;101021.38;;;5.93;89.05
32237;BME280;18726;44.732;10.550;2023-04-04T03:37:11;101021.09;;;5.81;89.77
32237;BME280;18726;44.732;10.550;2023-04-04T03:40:15;101019.69;;;5.84;88.21
32237;BME280;18726;44.732;10.550;2023-04-04T03:43:19;101024.69;;;5.90;86.95
32237;BME280;18726;44.732;10.550;2023-04-04T03:46:22;101023.47;;;5.96;86.35
32237;BME280;18726;44.732;10.550;2023-04-04T03:49:26;101032.66;;;5.95;86.13
32237;BME280;18726;44.732;10.550;2023-04-04T03:52:31;101032.97;;;5.94;85.04
32237;BME280;18726;44.732;10.550;2023-04-04T03:55:34;101033.97;;;5.84;83.28
32237;BME280;18726;44.732;10.550;2023-04-04T03:58:38;101034.56;;;5.81;82.80
32237;BME280;18726;44.732;10.550;2023-04-04T04:01:41;101032.97;;;5.80;82.25
32237;BME280;18726;44.732;10.550;2023-04-04T04:04:44;101039.84;;;5.86;80.19
32237;BME280;18726;44.732;10.550;2023-04-04T04:07:48;101034.94;;;5.88;81.31
32237;BME280;18726;44.732;10.550;2023-04-04T04:10:52;101041.44;;;5.87;80.22
32237;BME280;18726;44.732;10.550;2023-04-04T04:13:56;101035.06;;;5.83;80.22
32237;BME280;18726;44.732;10.550;2023-04-04T04:16:59;101045.22;;;5.86;80.36
32237;BME280;18726;44.732;10.550;2023-04-04T04:20:02;101030.91;;;5.77;80.50
32237;BME280;18726;44.732;10.550;2023-04-04T04:23:13;101042.66;;;5.81;80.35
32237;BME280;18726;44.732;10.550;2023-04-04T04:26:17;101042.94;;;5.93;79.96
32237;BME280;18726;44.732;10.550;2023-04-04T04:29:20;101038.25;;;5.85;80.64
32237;BME280;18726;44.732;10.550;2023-04-04T04:32:24;101038.84;;;5.96;79.71
32237;BME280;18726;44.732;10.550;2023-04-04T04:35:30;101049.94;;;5.94;80.21
32237;BME280;18726;44.732;10.550;2023-04-04T04:38:34;101053.81;;;5.88;79.99
32237;BME280;18726;44.732;10.550;2023-04-04T04:41:39;101054.03;;;5.92;80.60
32237;BME280;18726;44.732;10.550;2023-04-04T04:44:44;101053.81;;;5.88;79.44
32237;BME280;18726;44.732;10.550;2023-04-04T04:47:48;101059.19;;;5.88;78.23
32237;BME280;18726;44.732;10.550;2023-04-04T04:50:54;101053.81;;;5.88;78.90
32237;BME280;18726;44.732;10.550;2023-04-04T04:54:08;101060.81;;;5.89;78.88
32237;BME280;18726;44.732;10.550;2023-04-04T04:57:14;101063.00;;;5.87;79.95
32237;BME280;18726;44.732;10.550;2023-04-04T05:00:20;101068.56;;;6.04;79.60
32237;BME280;18726;44.732;10.550;2023-04-04T05:03:26;101066.84;;;6.31;77.53
32237;BME280;18726;44.732;10.550;2023-04-04T05:06:30;101068.44;;;6.32;77.56
32237;BME280;18726;44.732;10.550;2023-04-04T05:09:33;101074.34;;;6.42;76.68
32237;BME280;18726;44.732;10.550;2023-04-04T05:12:40;101071.81;;;6.68;74.53
32237;BME280;18726;44.732;10.550;2023-04-04T05:15:47;101081.34;;;7.05;74.54
32237;BME280;18726;44.732;10.550;2023-04-04T05:18:50;101077.03;;;7.70;70.10
32237;BME280;18726;44.732;10.550;2023-04-04T05:21:55;101085.44;;;8.11;67.75
32237;BME280;18726;44.732;10.550;2023-04-04T05:25:08;101078.94;;;8.04;67.40
32237;BME280;18726;44.732;10.550;2023-04-04T05:28:12;101082.56;;;7.48;68.39
32237;BME280;18726;44.732;10.550;2023-04-04T05:31:16;101082.13;;;7.06;70.47
32237;BME280;18726;44.732;10.550;2023-04-04T05:34:21;101094.13;;;7.31;71.84
32237;BME280;18726;44.732;10.550;2023-04-04T05:37:26;101090.03;;;7.42;70.67
32237;BME280;18726;44.732;10.550;2023-04-04T05:40:30;101094.53;;;8.24;68.87
32237;BME280;18726;44.732;10.550;2023-04-04T05:43:42;101102.78;;;9.38;62.51
32237;BME280;18726;44.732;10.550;2023-04-04T05:46:50;101109.56;;;9.74;59.76
32237;BME280;18726;44.732;10.550;2023-04-04T05:49:55;101114.41;;;10.31;57.45
32237;BME280;18726;44.732;10.550;2023-04-04T05:52:59;101104.59;;;10.18;56.90
32237;BME280;18726;44.732;10.550;2023-04-04T05:56:02;101113.47;;;10.27;55.75
32237;BME280;18726;44.732;10.550;2023-04-04T05:59:09;101114.28;;;10.72;55.00
32237;BME280;18726;44.732;10.550;2023-04-04T06:02:23;101115.50;;;11.32;53.74
32237;BME280;18726;44.732;10.550;2023-04-04T06:05:32;101119.34;;;11.07;51.57
32237;BME280;18726;44.732;10.550;2023-04-04T06:08:35;101122.69;;;11.89;51.63
32237;BME280;18726;44.732;10.550;2023-04-04T06:11:39;101124.50;;;11.97;49.20
32237;BME280;18726;44.732;10.550;2023-04-04T06:14:45;101124.50;;;11.97;49.32
32237;BME280;18726;44.732;10.550;2023-04-04T06:17:49;101133.47;;;12.54;49.08
32237;BME280;18726;44.732;10.550;2023-04-04T06:20:53;101134.44;;;13.36;46.96
32237;BME280;18726;44.732;10.550;2023-04-04T06:23:56;101128.38;;;13.27;45.50
32237;BME280;18726;44.732;10.550;2023-04-04T06:26:59;101136.28;;;13.83;45.25
32237;BME280;18726;44.732;10.550;2023-04-04T06:30:04;101131.34;;;13.54;44.40
32237;BME280;18726;44.732;10.550;2023-04-04T06:33:08;101139.09;;;13.36;43.71
32237;BME280;18726;44.732;10.550;2023-04-04T06:36:17;101140.06;;;13.43;43.57
32237;BME280;18726;44.732;10.550;2023-04-04T06:39:20;101140.59;;;13.49;43.96
32237;BME280;18726;44.732;10.550;2023-04-04T06:42:26;101145.28;;;14.22;42.82
32237;BME280;18726;44.732;10.550;2023-04-04T06:45:30;101146.22;;;13.09;43.95
32237;BME280;18726;44.732;10.550;2023-04-04T06:48:35;101147.22;;;14.79;41.45
32237;BME280;18726;44.732;10.550;2023-04-04T06:51:39;101150.03;;;14.06;42.62
32237;BME280;18726;44.732;10.550;2023-04-04T06:54:43;101141.56;;;14.92;41.24
32237;BME280;18726;44.732;10.550;2023-04-04T06:57:48;101144.81;;;15.46;41.05
32237;BME280;18726;44.732;10.550;2023-04-04T07:00:51;101153.53;;;13.36;41.68
32237;BME280;18726;44.732;10.550;2023-04-04T07:03:54;101156.09;;;13.29;41.49
32237;BME280;18726;44.732;10.550;2023-04-04T07:06:58;101156.06;;;14.73;40.53
32237;BME280;18726;44.732;10.550;2023-04-04T07:10:01;101149.09;;;13.98;40.73
32237;BME280;18726;44.732;10.550;2023-04-04T07:13:05;101159.59;;;13.30;41.62
32237;BME280;18726;44.732;10.550;2023-04-04T07:16:08;101170.59;;;13.33;40.56
32237;BME280;18726;44.732;10.550;2023-04-04T07:19:13;101160.34;;;14.51;39.79
32237;BME280;18726;44.732;10.550;2023-04-04T07:22:16;101152.16;;;14.51;39.93
32237;BME280;18726;44.732;10.550;2023-04-04T07:25:20;101150.94;;;14.91;39.75
32237;BME280;18726;44.732;10.550;2023-04-04T07:28:23;101155.31;;;15.18;39.34
32237;BME280;18726;44.732;10.550;2023-04-04T07:31:26;101154.47;;;15.14;38.96
32237;BME280;18726;44.732;10.550;2023-04-04T07:34:30;101161.63;;;15.22;39.76
32237;BME280;18726;44.732;10.550;2023-04-04T07:37:37;101158.19;;;15.51;38.67
32237;BME280;18726;44.732;10.550;2023-04-04T07:40:40;101162.91;;;15.05;39.05
32237;BME280;18726;44.732;10.550;2023-04-04T07:43:43;101165.25;;;14.42;39.21
32237;BME280;18726;44.732;10.550;2023-04-04T07:46:47;101155.84;;;15.04;39.99
32237;BME280;18726;44.732;10.550;2023-04-04T07:49:50;101159.31;;;15.24;40.04
32237;BME280;18726;44.732;10.550;2023-04-04T07:52:53;101162.72;;;15.40;37.13
32237;BME280;18726;44.732;10.550;2023-04-04T07:55:58;101165.41;;;15.14;38.24
32237;BME280;18726;44.732;10.550;2023-04-04T07:59:01;101174.94;;;15.99;36.84
32237;BME280;18726;44.732;10.550;2023-04-04T08:02:05;101180.59;;;16.77;34.53
32237;BME280;18726;44.732;10.550;2023-04-04T08:05:08;101171.34;;;15.42;36.19
32237;BME280;18726;44.732;10.550;2023-04-04T08:08:11;101177.44;;;15.32;35.13
32237;BME280;18726;44.732;10.550;2023-04-04T08:11:15;101167.72;;;15.84;35.54
32237;BME280;18726;44.732;10.550;2023-04-04T08:14:19;101172.06;;;15.88;35.37
32237;BME280;18726;44.732;10.550;2023-04-04T08:17:23;101166.13;;;17.20;33.45
32237;BME280;18726;44.732;10.550;2023-04-04T08:20:26;101175.72;;;15.70;34.60
32237;BME280;18726;44.732;10.550;2023-04-04T08:23:30;101172.94;;;15.20;36.16
32237;BME280;18726;44.732;10.550;2023-04-04T08:26:33;101177.41;;;14.44;35.98
32237;BME280;18726;44.732;10.550;2023-04-04T08:29:37;101158.47;;;14.55;34.99
32237;BME280;18726;44.732;10.550;2023-04-04T08:32:40;101165.63;;;14.82;35.81
32237;BME280;18726;44.732;10.550;2023-04-04T08:35:44;101162.44;;;16.32;33.79
32237;BME280;18726;44.732;10.550;2023-04-04T08:38:48;101157.75;;;14.58;35.38
32237;BME280;18726;44.732;10.550;2023-04-04T08:42:09;101153.13;;;15.27;35.58
32237;BME280;18726;44.732;10.550;2023-04-04T08:45:16;101154.47;;;16.19;34.20
32237;BME280;18726;44.732;10.550;2023-04-04T08:48:20;101153.81;;;16.30;34.51
32237;BME280;18726;44.732;10.550;2023-04-04T08:51:25;101167.41;;;15.17;35.09
32237;BME280;18726;44.732;10.550;2023-04-04T08:54:32;101152.47;;;15.60;35.02
32237;BME280;18726;44.732;10.550;2023-04-04T08:57:36;101161.84;;;13.75;36.38
32237;BME280;18726;44.732;10.550;2023-04-04T09:00:40;101153.22;;;15.34;36.88
32237;BME280;18726;44.732;10.550;2023-04-04T09:03:44;101158.97;;;14.22;36.72
32237;BME280;18726;44.732;10.550;2023-04-04T09:06:48;101156.84;;;13.96;36.73
32237;BME280;18726;44.732;10.550;2023-04-04T09:09:52;101155.88;;;14.04;39.55
32237;BME280;18726;44.732;10.550;2023-04-04T09:12:56;101161.38;;;12.78;37.96
32237;BME280;18726;44.732;10.550;2023-04-04T09:16:00;101161.00;;;13.08;39.64
32237;BME280;18726;44.732;10.550;2023-04-04T09:19:04;101180.25;;;12.15;39.64
32237;BME280;18726;44.732;10.550;2023-04-04T09:22:07;101159.56;;;11.74;40.16
32237;BME280;18726;44.732;10.550;2023-04-04T09:25:12;101159.22;;;12.84;41.31
32237;BME280;18726;44.732;10.550;2023-04-04T09:28:16;101154.13;;;13.14;40.36
32237;BME280;18726;44.732;10.550;2023-04-04T09:31:20;101153.91;;;13.19;38.23
32237;BME280;18726;44.732;10.550;2023-04-04T09:34:23;101150.72;;;13.48;38.95
32237;BME280;18726;44.732;10.550;2023-04-04T09:37:27;101167.13;;;13.68;39.43
32237;BME280;18726;44.732;10.550;2023-04-04T09:40:30;101157.81;;;13.69;39.92
32237;BME280;18726;44.732;10.550;2023-04-04T09:43:33;101146.38;;;12.84;40.75
32237;BME280;18726;44.732;10.550;2023-04-04T09:46:38;101154.59;;;12.72;41.59
32237;BME280;18726;44.732;10.550;2023-04-04T09:49:41;101146.22;;;13.09;40.06
32237;BME280;18726;44.732;10.550;2023-04-04T09:52:47;101157.34;;;13.16;40.69
32237;BME280;18726;44.732;10.550;2023-04-04T09:55:51;101145.38;;;12.77;40.07
32237;BME280;18726;44.732;10.550;2023-04-04T09:58:55;101153.25;;;13.10;41.46
32237;BME280;18726;44.732;10.550;2023-04-04T10:02:00;101154.63;;;12.44;40.06
32237;BME280;18726;44.732;10.550;2023-04-04T10:05:04;101152.38;;;12.90;39.64
32237;BME280;18726;44.732;10.550;2023-04-04T10:08:20;101172.53;;;12.17;40.09
32237;BME280;18726;44.732;10.550;2023-04-04T10:11:31;101153.31;;;11.86;41.14
32237;BME280;18726;44.732;10.550;2023-04-04T10:14:36;101147.22;;;12.29;40.19
32237;BME280;18726;44.732;10.550;2023-04-04T10:17:40;101145.72;;;12.32;41.30
32237;BME280;18726;44.732;10.550;2023-04-04T10:20:44;101149.47;;;12.55;41.02
32237;BME280;18726;44.732;10.550;2023-04-04T10:23:48;101148.75;;;12.70;39.39
32237;BME280;18726;44.732;10.550;2023-04-04T10:26:52;101157.31;;;12.29;39.83
32237;BME280;18726;44.732;10.550;2023-04-04T10:29:58;101149.19;;;13.04;39.13
32237;BME280;18726;44.732;10.550;2023-04-04T10:33:05;101170.97;;;12.72;41.29
32237;BME280;18726;44.732;10.550;2023-04-04T10:36:10;101149.91;;;12.41;42.38
32237;BME280;18726;44.732;10.550;2023-04-04T10:42:18;101140.81;;;12.37;41.45
32237;BME280;18726;44.732;10.550;2023-04-04T10:45:22;101152.84;;;12.08;42.75
32237;BME280;18726;44.732;10.550;2023-04-04T10:48:25;101138.22;;;12.41;42.24
32237;BME280;18726;44.732;10.550;2023-04-04T10:51:30;101125.09;;;12.18;41.31
32237;BME280;18726;44.732;10.550;2023-04-04T10:54:33;101138.13;;;12.53;41.96
32237;BME280;18726;44.732;10.550;2023-04-04T10:57:39;101131.94;;;12.84;42.48
32237;BME280;18726;44.732;10.550;2023-04-04T11:00:50;101137.75;;;12.82;41.51
32237;BME280;18726;44.732;10.550;2023-04-04T11:04:16;101144.91;;;12.59;43.36
32237;BME280;18726;44.732;10.550;2023-04-04T11:07:20;101144.69;;;12.36;43.00
32237;BME280;18726;44.732;10.550;2023-04-04T11:10:30;101137.00;;;11.74;43.43
32237;BME280;18726;44.732;10.550;2023-04-04T11:13:35;101150.56;;;12.10;44.63
32237;BME280;18726;44.732;10.550;2023-04-04T11:16:48;101138.91;;;12.38;43.64
32237;BME280;18726;44.732;10.550;2023-04-04T11:19:57;101137.41;;;12.12;43.28
32237;BME280;18726;44.732;10.550;2023-04-04T11:23:04;101132.03;;;12.44;40.03
32237;BME280;18726;44.732;10.550;2023-04-04T11:26:08;101141.94;;;12.64;42.53
32237;BME280;18726;44.732;10.550;2023-04-04T11:29:18;101132.94;;;12.48;40.55
32237;BME280;18726;44.732;10.550;2023-04-04T11:32:32;101131.94;;;12.68;41.63
32237;BME280;18726;44.732;10.550;2023-04-04T11:35:39;101137.38;;;12.68;39.50
32237;BME280;18726;44.732;10.550;2023-04-04T11:38:48;101118.75;;;13.02;40.33
32237;BME280;18726;44.732;10.550;2023-04-04T11:42:04;101109.44;;;13.03;39.68
32237;BME280;18726;44.732;10.550;2023-04-04T11:45:18;101120.50;;;12.78;38.48
32237;BME280;18726;44.732;10.550;2023-04-04T11:48:23;101117.16;;;12.69;38.37
32237;BME280;18726;44.732;10.550;2023-04-04T11:51:27;101130.56;;;12.18;37.34
32237;BME280;18726;44.732;10.550;2023-04-04T11:54:30;101109.09;;;12.45;39.48
32237;BME280;18726;44.732;10.550;2023-04-04T11:57:39;101111.72;;;12.69;39.24
32237;BME280;18726;44.732;10.550;2023-04-04T12:00:43;101104.59;;;12.65;40.29
32237;BME280;18726;44.732;10.550;2023-04-04T12:03:48;101106.38;;;12.45;39.55
32237;BME280;18726;44.732;10.550;2023-04-04T12:06:53;101101.69;;;12.30;36.30
32237;BME280;18726;44.732;10.550;2023-04-04T12:09:56;101098.19;;;12.29;38.51
32237;BME280;18726;44.732;10.550;2023-04-04T12:13:01;101097.19;;;12.22;39.17
32237;BME280;18726;44.732;10.550;2023-04-04T12:16:04;101095.09;;;12.03;36.58
32237;BME280;18726;44.732;10.550;2023-04-04T12:19:08;101098.28;;;12.33;38.98
32237;BME280;18726;44.732;10.550;2023-04-04T12:22:12;101092.16;;;12.08;36.76
32237;BME280;18726;44.732;10.550;2023-04-04T12:25:16;101069.75;;;12.14;37.55
32237;BME280;18726;44.732;10.550;2023-04-04T12:28:20;101078.34;;;12.44;37.75
32237;BME280;18726;44.732;10.550;2023-04-04T12:31:24;101079.81;;;12.42;38.05
32237;BME280;18726;44.732;10.550;2023-04-04T12:34:31;101065.38;;;12.26;38.19
32237;BME280;18726;44.732;10.550;2023-04-04T12:37:34;101066.47;;;12.37;38.16
32237;BME280;18726;44.732;10.550;2023-04-04T12:40:38;101080.16;;;12.68;38.35
32237;BME280;18726;44.732;10.550;2023-04-04T12:43:41;101061.78;;;12.22;37.98
32237;BME280;18726;44.732;10.550;2023-04-04T12:46:45;101066.22;;;12.14;39.09
32237;BME280;18726;44.732;10.550;2023-04-04T12:49:48;101067.66;;;11.96;37.60
32237;BME280;18726;44.732;10.550;2023-04-04T12:52:56;101062.19;;;11.80;37.75
32237;BME280;18726;44.732;10.550;2023-04-04T12:56:02;101054.69;;;11.77;36.75
32237;BME280;18726;44.732;10.550;2023-04-04T12:59:07;101061.44;;;11.95;37.89
32237;BME280;18726;44.732;10.550;2023-04-04T13:02:13;101055.41;;;12.02;36.47
32237;BME280;18726;44.732;10.550;2023-04-04T13:05:19;101057.66;;;12.28;36.51
32237;BME280;18726;44.732;10.550;2023-04-04T13:08:25;101048.72;;;12.43;38.44
32237;BME280;18726;44.732;10.550;2023-04-04T13:11:54;101051.78;;;12.26;37.25
32237;BME280;18726;44.732;10.550;2023-04-04T13:14:59;101055.59;;;11.81;35.33
32237;BME280;18726;44.732;10.550;2023-04-04T13:18:11;101058.84;;;11.87;39.65
32237;BME280;18726;44.732;10.550;2023-04-04T13:21:15;101041.03;;;11.89;38.24
32237;BME280;18726;44.732;10.550;2023-04-04T13:24:18;101041.88;;;12.05;39.46
32237;BME280;18726;44.732;10.550;2023-04-04T13:27:22;101046.19;;;11.78;39.08
32237;BME280;18726;44.732;10.550;2023-04-04T13:30:30;101036.53;;;11.81;38.83
32237;BME280;18726;44.732;10.550;2023-04-04T13:33:34;101020.59;;;11.95;39.96
32237;BME280;18726;44.732;10.550;2023-04-04T13:36:37;101040.13;;;11.85;39.96
32237;BME280;18726;44.732;10.550;2023-04-04T13:39:41;101045.31;;;12.02;37.63
32237;BME280;18726;44.732;10.550;2023-04-04T13:42:44;101027.38;;;12.01;37.51
32237;BME280;18726;44.732;10.550;2023-04-04T13:45:48;101037.22;;;11.66;39.61
32237;BME280;18726;44.732;10.550;2023-04-04T13:48:51;101029.97;;;11.70;38.36
32237;BME280;18726;44.732;10.550;2023-04-04T13:51:55;101026.94;;;11.99;38.09
32237;BME280;18726;44.732;10.550;2023-04-04T13:54:58;101021.72;;;11.94;38.96
32237;BME280;18726;44.732;10.550;2023-04-04T13:58:02;101022.19;;;12.40;39.82
32237;BME280;18726;44.732;10.550;2023-04-04T14:01:05;101028.50;;;12.44;39.80
32237;BME280;18726;44.732;10.550;2023-04-04T14:04:09;101018.78;;;11.99;38.54
32237;BME280;18726;44.732;10.550;2023-04-04T14:07:12;101018.63;;;12.24;39.41
32237;BME280;18726;44.732;10.550;2023-04-04T14:10:16;101010.34;;;12.04;36.90
32237;BME280;18726;44.732;10.550;2023-04-04T14:13:19;101013.09;;;12.20;37.95
32237;BME280;18726;44.732;10.550;2023-04-04T14:16:23;101008.53;;;12.24;38.96
32237;BME280;18726;44.732;10.550;2023-04-04T14:19:26;101003.31;;;12.03;37.43
32237;BME280;18726;44.732;10.550;2023-04-04T14:22:29;101009.13;;;12.17;39.32
32237;BME280;18726;44.732;10.550;2023-04-04T14:25:33;101001.69;;;12.30;39.72
32237;BME280;18726;44.732;10.550;2023-04-04T14:28:36;101007.19;;;12.18;38.42
32237;BME280;18726;44.732;10.550;2023-04-04T14:31:40;101019.78;;;11.79;36.45
32237;BME280;18726;44.732;10.550;2023-04-04T14:34:44;101000.41;;;11.96;39.22
32237;BME280;18726;44.732;10.550;2023-04-04T14:37:47;101007.69;;;11.92;37.56
32237;BME280;18726;44.732;10.550;2023-04-04T14:40:52;100998.78;;;12.23;39.91
32237;BME280;18726;44.732;10.550;2023-04-04T14:43:55;101006.53;;;12.37;40.26
32237;BME280;18726;44.732;10.550;2023-04-04T14:46:59;100995.97;;;12.20;39.05
32237;BME280;18726;44.732;10.550;2023-04-04T14:50:03;100990.84;;;12.02;40.52
32237;BME280;18726;44.732;10.550;2023-04-04T14:53:06;100996.50;;;12.09;39.11
32237;BME280;18726;44.732;10.550;2023-04-04T14:56:10;100994.56;;;12.26;38.87
32237;BME280;18726;44.732;10.550;2023-04-04T14:59:13;100986.47;;;12.13;39.01
32237;BME280;18726;44.732;10.550;2023-04-04T15:02:16;100987.19;;;12.10;40.39
32237;BME280;18726;44.732;10.550;2023-04-04T15:05:20;100989.72;;;12.19;39.40
32237;BME280;18726;44.732;10.550;2023-04-04T15:08:23;100988.44;;;12.29;41.93
32237;BME280;18726;44.732;10.550;2023-04-04T15:11:26;100988.44;;;12.29;38.85
32237;BME280;18726;44.732;10.550;2023-04-04T15:14:30;100990.31;;;11.97;39.07
32237;BME280;18726;44.732;10.550;2023-04-04T15:17:33;100992.47;;;11.91;37.71
32237;BME280;18726;44.732;10.550;2023-04-04T15:20:36;100998.28;;;11.90;39.03
32237;BME280;18726;44.732;10.550;2023-04-04T15:23:41;101002.75;;;11.82;39.89
32237;BME280;18726;44.732;10.550;2023-04-04T15:26:45;100992.03;;;11.89;38.76
32237;BME280;18726;44.732;10.550;2023-04-04T15:29:48;100989.06;;;11.94;38.38
32237;BME280;18726;44.732;10.550;2023-04-04T15:32:53;100983.97;;;11.93;39.80
32237;BME280;18726;44.732;10.550;2023-04-04T15:35:57;101000.34;;;12.08;40.93
32237;BME280;18726;44.732;10.550;2023-04-04T15:39:02;100987.47;;;12.37;42.54
32237;BME280;18726;44.732;10.550;2023-04-04T15:42:06;100993.59;;;12.18;39.54
32237;BME280;18726;44.732;10.550;2023-04-04T15:45:11;100990.84;;;12.02;42.08
32237;BME280;18726;44.732;10.550;2023-04-04T15:48:14;101000.69;;;12.07;40.73
32237;BME280;18726;44.732;10.550;2023-04-04T15:51:18;101005.47;;;11.82;40.39
32237;BME280;18726;44.732;10.550;2023-04-04T15:54:23;100996.06;;;11.79;39.21
32237;BME280;18726;44.732;10.550;2023-04-04T15:57:27;100999.91;;;12.06;38.84
32237;BME280;18726;44.732;10.550;2023-04-04T16:00:30;100997.06;;;11.75;39.27